Terminal Aerodrome Forecast
Issued by NWS Shreveport, LA

Home | Current Version | Previous Version | Text Only | Print | Product List | Glossary On
Versions: 1 2 3 4 5 6 7 8 9 10 11 12 13
000
FTUS44 KSHV 290500
TAFTXK
TAF
KTXK 290520Z 2906/3006 18010KT P6SM SCT015 SCT250
      TEMPO 2906/2909 BKN010
     FM290900 19010KT P6SM BKN010
      TEMPO 2909/2913 5SM BR BKN008
     FM291300 20012KT 6SM BR OVC015
     FM291500 21013KT P6SM OVC020
     FM291700 21015G25KT P6SM SCT040
     FM292300 18012G18KT P6SM SCT045=

USA.gov is the U.S. government's official web portal to all federal, state and local government web resources and services.